createdAt,value
2022-11-07T00:01:22.491Z,14.05
2022-11-07T00:03:49.894Z,13.60
2022-11-07T00:06:16.772Z,14.98
2022-11-07T00:08:44.011Z,15.38
2022-11-07T00:11:11.171Z,13.43
2022-11-07T00:13:38.333Z,15.38
2022-11-07T00:16:07.811Z,15.00
2022-11-07T00:18:35.358Z,14.73
2022-11-07T00:21:03.842Z,15.50
2022-11-07T00:23:31.177Z,13.85
2022-11-07T00:26:05.553Z,14.32
2022-11-07T00:28:37.256Z,13.90
2022-11-07T00:31:05.717Z,15.07
2022-11-07T00:33:33.489Z,15.32
2022-11-07T00:36:00.401Z,14.38
2022-11-07T00:38:27.996Z,16.30
2022-11-07T00:41:06.247Z,15.05
2022-11-07T00:43:33.800Z,14.63
2022-11-07T00:46:02.666Z,15.98
2022-11-07T00:48:30.563Z,14.85
2022-11-07T00:50:57.928Z,14.23
2022-11-07T00:53:25.123Z,13.77
2022-11-07T00:55:52.032Z,16.27
2022-11-07T00:58:19.192Z,14.15
2022-11-07T01:00:46.128Z,14.57
2022-11-07T01:03:31.905Z,15.00
2022-11-07T01:06:00.923Z,14.25
2022-11-07T01:08:28.719Z,16.88
2022-11-07T01:10:56.350Z,15.85
2022-11-07T01:13:24.239Z,14.60
2022-11-07T01:15:51.903Z,14.38
2022-11-07T01:18:19.115Z,14.57
2022-11-07T01:20:46.048Z,14.27
2022-11-07T01:23:14.014Z,14.75
2022-11-07T01:25:41.375Z,15.00
2022-11-07T01:28:09.611Z,14.82
2022-11-07T01:30:41.475Z,14.75
2022-11-07T01:33:09.828Z,16.30
2022-11-07T01:35:36.989Z,13.95
2022-11-07T01:38:04.609Z,15.93
2022-11-07T01:40:33.801Z,14.38
2022-11-07T01:43:00.936Z,13.40
2022-11-07T01:45:30.950Z,14.43
2022-11-07T01:48:01.648Z,15.38
2022-11-07T01:50:30.074Z,14.43
2022-11-07T01:52:57.577Z,14.27
2022-11-07T01:55:31.789Z,14.32
2022-11-07T01:58:01.995Z,13.85
2022-11-07T02:00:30.836Z,13.05
2022-11-07T02:03:11.586Z,14.60
2022-11-07T02:05:44.395Z,13.27
2022-11-07T02:08:12.665Z,15.57
2022-11-07T02:10:41.241Z,14.15
2022-11-07T02:13:08.458Z,13.80
2022-11-07T02:15:36.700Z,15.50
2022-11-07T02:18:04.369Z,14.20
2022-11-07T02:20:31.626Z,12.98
2022-11-07T02:23:08.575Z,15.18
2022-11-07T02:25:37.037Z,13.93
2022-11-07T02:28:08.721Z,13.30
2022-11-07T02:30:36.340Z,15.18
2022-11-07T02:33:03.655Z,13.18
2022-11-07T02:35:44.271Z,13.32
2022-11-07T02:38:15.809Z,12.65
2022-11-07T02:40:46.661Z,13.20
2022-11-07T02:43:16.182Z,13.80
2022-11-07T02:45:46.030Z,13.07
2022-11-07T02:48:12.911Z,13.48
2022-11-07T02:50:41.318Z,13.63
2022-11-07T02:53:08.370Z,12.98
2022-11-07T02:55:35.525Z,13.82
2022-11-07T02:58:02.563Z,14.40
2022-11-07T03:00:29.819Z,14.57
2022-11-07T03:02:56.843Z,14.63
2022-11-07T03:05:24.115Z,13.85
2022-11-07T03:07:51.018Z,15.20
2022-11-07T03:10:18.509Z,14.13
2022-11-07T03:12:45.817Z,14.90
2022-11-07T03:15:13.529Z,13.60
2022-11-07T03:17:41.497Z,14.45
2022-11-07T03:20:09.362Z,14.38
2022-11-07T03:22:36.194Z,13.82
2022-11-07T03:25:03.686Z,13.50
2022-11-07T03:27:30.637Z,13.52
2022-11-07T03:29:58.023Z,14.00
2022-11-07T03:32:24.952Z,13.82
2022-11-07T03:34:52.092Z,14.20
2022-11-07T03:37:18.960Z,14.32
2022-11-07T03:39:46.222Z,13.40
2022-11-07T03:42:13.143Z,13.05
2022-11-07T03:44:40.603Z,13.07
2022-11-07T03:47:07.497Z,13.20
2022-11-07T03:49:34.649Z,13.90
2022-11-07T03:52:01.489Z,13.48
2022-11-07T03:54:28.625Z,13.25
2022-11-07T03:56:55.670Z,12.55
2022-11-07T03:59:22.876Z,13.70
2022-11-07T04:01:49.884Z,15.02
2022-11-07T04:04:17.248Z,13.68
2022-11-07T04:06:44.645Z,14.80
2022-11-07T04:09:11.764Z,13.23
2022-11-07T04:11:57.250Z,13.85
2022-11-07T04:15:02.889Z,12.75
2022-11-07T04:17:30.482Z,13.55
2022-11-07T04:19:57.640Z,12.93
2022-11-07T04:22:25.802Z,12.25
2022-11-07T04:24:53.318Z,13.23
2022-11-07T04:27:39.614Z,12.70
2022-11-07T04:30:23.818Z,13.07
2022-11-07T04:32:59.355Z,13.07
2022-11-07T04:35:30.147Z,11.55
2022-11-07T04:37:57.667Z,12.68
2022-11-07T04:40:24.976Z,11.70
2022-11-07T04:42:51.932Z,11.00
2022-11-07T04:45:19.156Z,12.73
2022-11-07T04:47:46.236Z,12.98
2022-11-07T04:50:16.538Z,11.57
2022-11-07T04:52:43.457Z,10.80
2022-11-07T04:55:18.222Z,11.38
2022-11-07T04:57:45.583Z,11.75
2022-11-07T05:00:13.633Z,10.00
2022-11-07T05:02:40.549Z,10.98
2022-11-07T05:05:08.155Z,10.57
2022-11-07T05:07:35.030Z,10.55
2022-11-07T05:10:02.171Z,9.07
2022-11-07T05:12:29.009Z,9.63
2022-11-07T05:14:56.177Z,9.48
2022-11-07T05:17:27.864Z,10.55
2022-11-07T05:19:55.544Z,9.73
2022-11-07T05:22:40.872Z,10.02
2022-11-07T05:25:08.858Z,9.63
2022-11-07T05:27:35.709Z,9.85
2022-11-07T05:30:03.632Z,10.40
2022-11-07T05:32:30.468Z,9.23
2022-11-07T05:34:57.651Z,9.27
2022-11-07T05:37:24.536Z,8.43
2022-11-07T05:39:55.019Z,8.95
2022-11-07T05:42:22.102Z,9.40
2022-11-07T05:44:49.251Z,9.80
2022-11-07T05:47:16.102Z,8.93
2022-11-07T05:49:43.244Z,10.30
2022-11-07T05:52:10.113Z,9.18
2022-11-07T05:54:37.285Z,9.40
2022-11-07T05:57:04.144Z,10.63
2022-11-07T05:59:31.285Z,11.15
2022-11-07T06:01:58.228Z,11.30
2022-11-07T06:04:25.722Z,12.13
2022-11-07T06:06:52.573Z,11.18
2022-11-07T06:09:19.938Z,11.57
2022-11-07T06:11:46.825Z,10.63
2022-11-07T06:14:13.936Z,11.02
2022-11-07T06:16:40.806Z,13.30
2022-11-07T06:19:07.928Z,11.40
2022-11-07T06:21:35.240Z,12.88
2022-11-07T06:24:03.483Z,14.55
2022-11-07T06:26:30.544Z,12.75
2022-11-07T06:28:57.696Z,12.93
2022-11-07T06:31:24.572Z,14.23
2022-11-07T06:33:52.142Z,11.23
2022-11-07T06:36:19.171Z,13.13
2022-11-07T06:38:46.457Z,14.45
2022-11-07T06:41:14.588Z,15.25
2022-11-07T06:43:42.085Z,13.75
2022-11-07T06:46:12.038Z,14.13
2022-11-07T06:48:39.878Z,12.18
2022-11-07T06:51:07.740Z,16.02
2022-11-07T06:53:34.938Z,14.00
2022-11-07T06:56:03.487Z,15.27
2022-11-07T06:58:30.793Z,14.43
2022-11-07T07:01:02.307Z,14.98
2022-11-07T07:03:30.270Z,15.63
2022-11-07T07:06:02.260Z,15.20
2022-11-07T07:08:29.503Z,15.82
2022-11-07T07:10:57.007Z,15.48
2022-11-07T07:13:24.166Z,15.43
2022-11-07T07:15:55.436Z,16.08
2022-11-07T07:18:23.406Z,14.90
2022-11-07T07:20:51.594Z,13.73
2022-11-07T07:23:20.054Z,14.98
2022-11-07T07:25:47.821Z,14.75
2022-11-07T07:28:14.997Z,14.40
2022-11-07T07:30:43.867Z,15.25
2022-11-07T07:33:14.978Z,15.68
2022-11-07T07:35:41.987Z,14.35
2022-11-07T07:38:10.713Z,14.52
2022-11-07T07:40:37.558Z,15.10
2022-11-07T07:43:04.688Z,14.85
2022-11-07T07:45:31.531Z,14.77
2022-11-07T07:48:02.585Z,15.52
2022-11-07T07:50:30.012Z,14.98
2022-11-07T07:53:02.495Z,16.73
2022-11-07T07:55:31.722Z,15.18
2022-11-07T07:57:58.850Z,14.27
2022-11-07T08:00:25.697Z,14.73
2022-11-07T08:03:04.003Z,15.57
2022-11-07T08:05:31.084Z,14.43
2022-11-07T08:07:58.258Z,14.38
2022-11-07T08:10:41.505Z,14.95
2022-11-07T08:13:10.073Z,14.02
2022-11-07T08:15:36.995Z,14.52
2022-11-07T08:18:05.057Z,15.88
2022-11-07T08:20:31.983Z,14.13
2022-11-07T08:23:03.732Z,14.27
2022-11-07T08:25:30.760Z,15.48
2022-11-07T08:27:59.175Z,15.20
2022-11-07T08:30:27.018Z,14.60
2022-11-07T08:32:54.365Z,14.52
2022-11-07T08:35:21.212Z,14.82
2022-11-07T08:37:48.363Z,14.57
2022-11-07T08:40:15.230Z,15.18
2022-11-07T08:42:42.343Z,13.18
2022-11-07T08:45:09.589Z,14.50
2022-11-07T08:47:36.752Z,13.40
2022-11-07T08:50:04.600Z,13.02
2022-11-07T08:52:31.826Z,13.80
2022-11-07T08:54:58.686Z,14.50
2022-11-07T08:57:26.091Z,13.65
2022-11-07T08:59:52.980Z,13.13
2022-11-07T09:05:07.586Z,14.30
2022-11-07T09:07:37.206Z,14.52
2022-11-07T09:10:04.650Z,13.15
2022-11-07T09:12:31.759Z,14.27
2022-11-07T09:14:58.760Z,13.60
2022-11-07T09:17:25.994Z,13.40
2022-11-07T09:19:54.433Z,14.20
2022-11-07T09:22:21.687Z,13.38
2022-11-07T09:24:48.529Z,13.00
2022-11-07T09:27:15.667Z,11.73
2022-11-07T09:29:42.556Z,13.75
2022-11-07T09:32:38.238Z,11.88
2022-11-07T09:35:00.664Z,28.33
2022-11-07T09:37:31.728Z,27.52
2022-11-07T09:39:58.614Z,19.13
2022-11-07T09:42:47.338Z,25.15
2022-11-07T09:45:14.351Z,24.73
2022-11-07T09:47:45.357Z,40.47
2022-11-07T09:50:17.770Z,37.30
2022-11-07T09:53:30.173Z,34.33
2022-11-07T09:56:01.005Z,27.65
2022-11-07T09:58:40.759Z,34.00
2022-11-07T10:01:13.502Z,14.57
2022-11-07T10:06:32.665Z,12.93
2022-11-07T10:09:12.872Z,11.05
2022-11-07T10:11:48.416Z,12.90
2022-11-07T10:14:24.270Z,20.58
2022-11-07T10:17:10.484Z,37.55
2022-11-07T10:19:40.447Z,44.25
2022-11-07T10:22:25.194Z,37.72
2022-11-07T10:25:18.753Z,49.90
2022-11-07T10:27:59.140Z,17.17
2022-11-07T10:30:26.324Z,12.82
2022-11-07T10:33:15.545Z,19.70
2022-11-07T10:35:54.753Z,19.20
2022-11-07T10:38:29.470Z,12.98
2022-11-07T10:40:57.109Z,11.45
2022-11-07T10:43:38.158Z,12.10
2022-11-07T10:46:17.093Z,11.48
2022-11-07T10:49:01.357Z,69.07
2022-11-07T10:51:39.680Z,27.10
2022-11-07T10:54:08.131Z,14.90
2022-11-07T10:57:07.350Z,18.25
2022-11-07T10:59:37.199Z,12.10
2022-11-07T11:02:22.374Z,13.80
2022-11-07T11:04:52.289Z,19.42
2022-11-07T11:07:22.969Z,13.35
2022-11-07T11:09:58.139Z,21.63
2022-11-07T11:12:29.987Z,13.52
2022-11-07T11:15:11.006Z,12.52
2022-11-07T11:17:38.586Z,32.17
2022-11-07T11:20:06.676Z,19.17
2022-11-07T11:22:41.764Z,23.88
2022-11-07T11:25:11.332Z,10.48
2022-11-07T11:27:39.582Z,9.23
2022-11-07T11:30:11.736Z,9.65
2022-11-07T11:33:00.737Z,9.80
2022-11-07T11:35:53.779Z,9.32
2022-11-07T11:38:29.613Z,8.48
2022-11-07T11:41:07.709Z,9.02
2022-11-07T11:43:55.333Z,8.43
2022-11-07T11:46:45.797Z,9.02
2022-11-07T11:49:19.283Z,8.73
2022-11-07T11:51:52.282Z,9.02
2022-11-07T11:54:19.510Z,8.65
2022-11-07T11:57:09.920Z,8.30
2022-11-07T11:59:59.007Z,8.00
2022-11-07T12:02:28.668Z,7.57
2022-11-07T12:05:34.848Z,8.40
2022-11-07T12:08:36.293Z,7.32
2022-11-07T12:11:40.990Z,8.80
2022-11-07T12:14:13.623Z,7.72
2022-11-07T12:16:50.748Z,7.88
2022-11-07T12:19:32.093Z,7.43
2022-11-07T12:22:33.314Z,9.23
2022-11-07T12:25:19.567Z,8.32
2022-11-07T12:28:07.286Z,7.65
2022-11-07T12:31:07.931Z,10.07
2022-11-07T12:34:10.478Z,9.40
2022-11-07T12:37:00.583Z,8.35
2022-11-07T12:40:10.704Z,6.82
2022-11-07T12:42:57.298Z,7.15
2022-11-07T12:46:06.294Z,8.65
2022-11-07T12:49:04.800Z,7.32
2022-11-07T12:51:55.656Z,6.18
2022-11-07T12:54:40.353Z,6.70
2022-11-07T12:57:15.532Z,7.15
2022-11-07T12:59:47.280Z,7.75
2022-11-07T13:02:35.304Z,7.60
2022-11-07T13:05:21.043Z,6.70
2022-11-07T13:07:59.827Z,7.45
2022-11-07T13:10:48.246Z,8.48
2022-11-07T13:13:30.763Z,8.52
2022-11-07T13:16:15.452Z,9.45
2022-11-07T13:18:43.008Z,7.57
2022-11-07T13:21:09.926Z,8.75
2022-11-07T13:23:37.247Z,7.40
2022-11-07T13:26:20.361Z,10.57
2022-11-07T13:28:59.521Z,7.28
2022-11-07T13:31:35.833Z,7.65
2022-11-07T13:34:29.754Z,8.45
2022-11-07T13:39:29.359Z,12.02
2022-11-07T13:41:56.693Z,10.68
2022-11-07T13:44:28.960Z,8.48
2022-11-07T13:46:59.373Z,9.07
2022-11-07T13:49:38.752Z,8.57
2022-11-07T13:52:21.536Z,9.73
2022-11-07T13:54:53.261Z,11.02
2022-11-07T13:57:31.119Z,10.70
2022-11-07T14:00:17.123Z,7.22
2022-11-07T14:02:56.250Z,10.43
2022-11-07T14:05:36.350Z,32.38
2022-11-07T14:08:13.907Z,17.30
2022-11-07T14:10:47.121Z,17.92
2022-11-07T14:13:41.266Z,25.98
2022-11-07T14:16:24.756Z,25.77
2022-11-07T14:18:59.172Z,27.27
2022-11-07T14:21:27.732Z,105.03
2022-11-07T14:23:55.702Z,73.55
2022-11-07T14:26:43.832Z,74.13
2022-11-07T14:29:21.673Z,37.88
2022-11-07T14:31:49.052Z,94.30
2022-11-07T14:34:21.468Z,52.63
2022-11-07T14:36:51.588Z,101.07
2022-11-07T14:39:20.313Z,148.38
2022-11-07T14:41:48.406Z,184.55
2022-11-07T14:44:28.508Z,86.93
2022-11-07T14:47:05.906Z,367.73
2022-11-07T14:49:42.999Z,322.90
2022-11-07T14:52:34.535Z,146.40
2022-11-07T14:55:08.413Z,52.38
2022-11-07T14:57:37.884Z,25.08
2022-11-07T15:00:16.892Z,78.85
2022-11-07T15:02:45.856Z,67.38
2022-11-07T15:05:39.195Z,42.92
2022-11-07T15:10:38.511Z,12.45
2022-11-07T15:13:24.372Z,14.73
2022-11-07T15:16:06.567Z,11.68
2022-11-07T15:18:41.621Z,7.68
2022-11-07T15:21:24.863Z,7.47
2022-11-07T15:23:53.075Z,7.50
2022-11-07T15:26:27.946Z,7.63
2022-11-07T15:28:55.356Z,9.68
2022-11-07T15:31:25.828Z,18.27
2022-11-07T15:33:54.940Z,22.42
2022-11-07T15:36:22.299Z,13.70
2022-11-07T15:38:50.801Z,10.68
2022-11-07T15:41:18.593Z,10.18
2022-11-07T15:43:45.838Z,9.43
2022-11-07T15:46:28.112Z,11.27
2022-11-07T15:48:55.279Z,17.25
2022-11-07T15:51:22.157Z,189.68
2022-11-07T15:53:49.337Z,393.05
2022-11-07T15:56:19.611Z,604.83
2022-11-07T15:58:47.296Z,513.22
2022-11-07T16:01:14.258Z,404.48
2022-11-07T16:03:41.766Z,558.53
2022-11-07T16:06:27.445Z,453.63
2022-11-07T16:08:54.900Z,187.10
2022-11-07T16:11:22.066Z,172.98
2022-11-07T16:13:50.856Z,94.38
2022-11-07T16:16:31.124Z,576.83
2022-11-07T16:18:58.306Z,179.00
2022-11-07T16:21:25.487Z,332.55
2022-11-07T16:23:52.717Z,350.67
2022-11-07T16:26:27.445Z,355.98
2022-11-07T16:28:54.672Z,123.85
2022-11-07T16:31:22.061Z,120.63
2022-11-07T16:33:49.525Z,116.55
2022-11-07T16:36:17.494Z,60.63
2022-11-07T16:38:45.025Z,52.38
2022-11-07T16:41:13.047Z,31.92
2022-11-07T16:43:40.522Z,85.60
2022-11-07T16:46:14.083Z,83.75
2022-11-07T16:48:41.868Z,55.20
2022-11-07T16:51:16.294Z,16.75
2022-11-07T16:53:44.553Z,10.88
2022-11-07T16:56:23.599Z,30.42
2022-11-07T16:58:51.365Z,27.67
2022-11-07T17:01:18.697Z,16.65
2022-11-07T17:03:49.131Z,33.75
2022-11-07T17:06:37.127Z,41.28
2022-11-07T17:09:12.142Z,33.58
2022-11-07T17:11:40.328Z,23.48
2022-11-07T17:14:07.457Z,21.38
2022-11-07T17:16:36.944Z,26.98
2022-11-07T17:19:05.655Z,31.52
2022-11-07T17:21:36.416Z,33.50
2022-11-07T17:24:04.241Z,23.45
2022-11-07T17:26:34.627Z,20.67
2022-11-07T17:29:03.928Z,43.42
2022-11-07T17:31:30.858Z,31.65
2022-11-07T17:33:58.206Z,25.55
2022-11-07T17:36:30.875Z,23.40
2022-11-07T17:39:05.671Z,22.65
2022-11-07T17:41:32.509Z,21.15
2022-11-07T17:44:00.395Z,17.52
2022-11-07T17:46:30.757Z,13.00
2022-11-07T17:49:00.404Z,12.00
2022-11-07T17:51:28.146Z,11.00
2022-11-07T17:53:56.953Z,12.77
2022-11-07T17:56:30.043Z,12.85
2022-11-07T17:58:59.592Z,22.17
2022-11-07T18:01:33.039Z,24.88
2022-11-07T18:04:00.876Z,18.48
2022-11-07T18:06:28.463Z,15.63
2022-11-07T18:08:58.160Z,13.90
2022-11-07T18:11:27.959Z,9.60
2022-11-07T18:13:57.577Z,8.93
2022-11-07T18:16:29.655Z,7.30
2022-11-07T18:19:00.941Z,8.48
2022-11-07T18:21:29.018Z,7.78
2022-11-07T18:23:56.652Z,7.85
2022-11-07T18:26:27.202Z,6.75
2022-11-07T18:28:54.338Z,8.18
2022-11-07T18:31:23.566Z,8.93
2022-11-07T18:33:55.092Z,7.40
2022-11-07T18:36:22.335Z,7.97
2022-11-07T18:38:50.878Z,7.90
2022-11-07T18:41:21.003Z,8.35
2022-11-07T18:43:48.331Z,8.00
2022-11-07T18:46:17.539Z,8.82
2022-11-07T18:48:45.095Z,7.88
2022-11-07T18:51:18.269Z,7.63
2022-11-07T18:53:45.470Z,7.40
2022-11-07T18:56:13.227Z,7.95
2022-11-07T18:58:43.983Z,8.75
2022-11-07T19:01:17.476Z,7.82
2022-11-07T19:03:46.077Z,9.02
2022-11-07T19:06:16.535Z,8.30
2022-11-07T19:08:47.285Z,8.50
2022-11-07T19:11:25.772Z,7.75
2022-11-07T19:13:53.677Z,8.50
2022-11-07T19:16:22.203Z,7.47
2022-11-07T19:18:50.721Z,8.63
2022-11-07T19:21:20.653Z,9.25
2022-11-07T19:23:48.726Z,8.25
2022-11-07T19:26:16.841Z,8.50
2022-11-07T19:28:43.954Z,8.32
2022-11-07T19:31:12.959Z,8.98
2022-11-07T19:33:41.522Z,8.75
2022-11-07T19:36:13.200Z,8.00
2022-11-07T19:38:40.749Z,9.73
2022-11-07T19:41:09.879Z,7.80
2022-11-07T19:43:38.584Z,7.68
2022-11-07T19:46:10.763Z,9.25
2022-11-07T19:48:38.151Z,8.07
2022-11-07T19:51:09.309Z,10.20
2022-11-07T19:53:36.574Z,9.60
2022-11-07T19:56:11.923Z,9.32
2022-11-07T19:58:39.698Z,8.98
2022-11-07T20:01:17.520Z,8.32
2022-11-07T20:03:47.141Z,9.10
2022-11-07T20:06:16.584Z,8.35
2022-11-07T20:08:46.074Z,10.23
2022-11-07T20:11:14.936Z,10.85
2022-11-07T20:13:43.133Z,9.05
2022-11-07T20:16:10.449Z,9.90
2022-11-07T20:18:39.013Z,9.45
2022-11-07T20:21:12.938Z,11.05
2022-11-07T20:23:41.290Z,10.50
2022-11-07T20:26:17.766Z,10.88
2022-11-07T20:28:46.872Z,10.40
2022-11-07T20:31:15.542Z,9.93
2022-11-07T20:33:43.094Z,10.40
2022-11-07T20:36:12.971Z,9.93
2022-11-07T20:38:41.177Z,11.40
2022-11-07T20:41:08.478Z,11.18
2022-11-07T20:43:36.386Z,11.25
2022-11-07T20:46:06.055Z,11.98
2022-11-07T20:48:33.713Z,10.45
2022-11-07T20:51:09.039Z,10.32
2022-11-07T20:53:37.673Z,10.65
2022-11-07T20:56:06.873Z,9.23
2022-11-07T20:58:39.454Z,9.93
2022-11-07T21:01:07.745Z,11.02
2022-11-07T21:03:35.303Z,9.75
2022-11-07T21:06:02.162Z,10.13
2022-11-07T21:08:33.157Z,10.60
2022-11-07T21:11:02.964Z,9.80
2022-11-07T21:13:30.102Z,11.02
2022-11-07T21:15:56.938Z,10.32
2022-11-07T21:18:24.625Z,10.50
2022-11-07T21:20:51.670Z,12.73
2022-11-07T21:23:19.491Z,10.82
2022-11-07T21:25:48.456Z,10.35
2022-11-07T21:28:17.868Z,11.07
2022-11-07T21:30:46.028Z,10.68
2022-11-07T21:33:15.387Z,10.85
2022-11-07T21:35:42.741Z,10.43
2022-11-07T21:38:09.880Z,10.55
2022-11-07T21:40:38.450Z,11.35
2022-11-07T21:43:05.963Z,10.35
2022-11-07T21:45:33.069Z,10.75
2022-11-07T21:48:00.311Z,10.93
2022-11-07T21:53:14.691Z,9.48
2022-11-07T21:55:41.811Z,10.32
2022-11-07T21:58:08.942Z,11.60
2022-11-07T22:00:36.947Z,9.82
2022-11-07T22:03:04.891Z,9.18
2022-11-07T22:05:31.843Z,10.90
2022-11-07T22:07:59.188Z,10.27
2022-11-07T22:10:26.061Z,10.48
2022-11-07T22:12:53.179Z,11.73
2022-11-07T22:15:20.142Z,9.68
2022-11-07T22:17:47.261Z,10.50
2022-11-07T22:20:14.232Z,10.38
2022-11-07T22:22:41.366Z,9.73
2022-11-07T22:25:08.302Z,10.50
2022-11-07T22:27:37.300Z,10.75
2022-11-07T22:30:05.414Z,9.95
2022-11-07T22:32:32.560Z,10.43
2022-11-07T22:34:59.414Z,9.45
2022-11-07T22:37:26.621Z,8.35
2022-11-07T22:39:53.478Z,10.48
2022-11-07T22:42:23.761Z,9.70
2022-11-07T22:44:51.629Z,9.23
2022-11-07T22:47:18.790Z,9.57
2022-11-07T22:49:45.736Z,9.85
2022-11-07T22:52:12.894Z,9.48
2022-11-07T22:54:39.851Z,9.40
2022-11-07T22:57:06.971Z,9.60
2022-11-07T22:59:33.980Z,10.38
2022-11-07T23:02:01.370Z,8.38
2022-11-07T23:04:32.709Z,9.85
2022-11-07T23:07:00.237Z,8.93
2022-11-07T23:09:27.091Z,9.30
2022-11-07T23:11:54.242Z,10.45
2022-11-07T23:14:22.201Z,8.95
2022-11-07T23:16:55.330Z,8.95
2022-11-07T23:19:24.327Z,9.45
2022-11-07T23:21:53.213Z,8.95
2022-11-07T23:24:20.803Z,9.27
2022-11-07T23:26:48.938Z,8.23
2022-11-07T23:29:22.915Z,9.25
2022-11-07T23:31:51.468Z,9.85
2022-11-07T23:34:19.487Z,10.07
2022-11-07T23:36:49.486Z,9.65
2022-11-07T23:39:19.786Z,9.23
2022-11-07T23:41:47.002Z,8.70
2022-11-07T23:44:15.064Z,9.25
2022-11-07T23:47:01.226Z,9.13
2022-11-07T23:49:54.908Z,7.72
2022-11-07T23:52:22.105Z,7.80
2022-11-07T23:55:07.663Z,9.38
2022-11-07T23:57:56.383Z,8.45
